Time;durP1;ratioP1;P1;durP2;ratioP2;P2;SDS_P1;SDS_P2;PMS_P1;PMS_P2;Temp;Humidity;BMP_temperature;BMP_pressure;BME280_temperature;BME280_humidity;BME280_pressure;Samples;Min_cycle;Max_cycle;Signal;HPM_P1;HPM_P2
2023/01/05 00:01:44;;;;;;;3.33;1.00;;;;;;;;;;5003988;28;20434;-89
2023/01/05 00:04:15;;;;;;;0.70;0.70;;;;;;;;;;5014304;28;20054;-90
2023/01/05 00:06:54;;;;;;;1.20;1.10;;;;;;;;;;5022027;28;20049;-91
2023/01/05 00:09:28;;;;;;;3.25;1.30;;;;;;;;;;5017854;28;20518;-92
2023/01/05 00:23:34;;;;;;;;;;;;;;;;;;5017758;28;20053;-89
2023/01/05 00:26:02;;;;;;;1.83;0.95;;;;;;;;;;5014881;28;19925;-89
2023/01/05 00:28:32;;;;;;;1.25;1.13;;;;;;;;;;5030750;28;20426;-89
2023/01/05 00:30:59;;;;;;;1.05;0.95;;;;;;;;;;4996653;28;20075;-89
2023/01/05 00:33:28;;;;;;;1.50;1.10;;;;;;;;;;5014691;28;20049;-90
2023/01/05 00:35:59;;;;;;;2.08;1.00;;;;;;;;;;4998412;28;20053;-90
2023/01/05 00:38:27;;;;;;;12.25;1.25;;;;;;;;;;5017765;28;20045;-90
2023/01/05 00:40:58;;;;;;;1.45;1.20;;;;;;;;;;5012569;28;20046;-90
2023/01/05 00:43:32;;;;;;;2.05;1.00;;;;;;;;;;5015766;28;20045;-89
2023/01/05 00:45:59;;;;;;;0.83;0.80;;;;;;;;;;5001879;28;20057;-89
2023/01/05 00:48:27;;;;;;;2.97;1.00;;;;;;;;;;4988918;28;20307;-89
2023/01/05 00:51:00;;;;;;;1.58;1.45;;;;;;;;;;5001903;28;20049;-90
2023/01/05 00:53:30;;;;;;;2.67;1.67;;;;;;;;;;4993086;28;20046;-90
2023/01/05 00:55:59;;;;;;;2.58;1.30;;;;;;;;;;5021111;28;20429;-89
2023/01/05 00:58:32;;;;;;;1.45;0.80;;;;;;;;;;5016906;28;20049;-89
2023/01/05 01:01:02;;;;;;;1.13;1.02;;;;;;;;;;5005672;28;20052;-91
2023/01/05 01:03:30;;;;;;;1.10;0.82;;;;;;;;;;5032386;28;20052;-89
2023/01/05 01:06:10;;;;;;;1.48;1.08;;;;;;;;;;5005324;28;20050;-89
2023/01/05 01:08:43;;;;;;;1.05;0.90;;;;;;;;;;5009736;28;20061;-91
2023/01/05 01:11:15;;;;;;;3.25;1.20;;;;;;;;;;5005983;28;20050;-90
2023/01/05 01:13:45;;;;;;;1.38;1.00;;;;;;;;;;5012763;28;20049;-91
2023/01/05 01:16:26;;;;;;;1.98;1.65;;;;;;;;;;5013184;28;20057;-90
2023/01/05 01:18:57;;;;;;;2.00;1.25;;;;;;;;;;4998485;28;20041;-92
2023/01/05 01:21:34;;;;;;;;;;;;;;;;;;;;;
2023/01/05 01:24:04;;;;;;;2.10;1.10;;;;;;;;;;5015655;28;20053;-90
2023/01/05 01:26:31;;;;;;;2.08;1.00;;;;;;;;;;5003536;28;20056;-89
2023/01/05 01:29:01;;;;;;;2.25;1.25;;;;;;;;;;5015148;28;20046;-91
2023/01/05 01:31:28;;;;;;;3.10;1.08;;;;;;;;;;5003972;28;20049;-92
2023/01/05 01:33:56;;;;;;;1.45;1.05;;;;;;;;;;5005505;28;20046;-90
2023/01/05 01:36:24;;;;;;;1.67;1.00;;;;;;;;;;5011926;28;20049;-91
2023/01/05 01:38:56;;;;;;;1.67;1.50;;;;;;;;;;5008130;28;20053;-90
2023/01/05 01:41:25;;;;;;;1.15;0.90;;;;;;;;;;5018039;28;20049;-89
2023/01/05 01:43:58;;;;;;;1.30;1.00;;;;;;;;;;5014146;28;20058;-90
2023/01/05 01:46:28;;;;;;;1.00;0.90;;;;;;;;;;5003846;28;20072;-89
2023/01/05 01:49:01;;;;;;;1.45;1.20;;;;;;;;;;5001033;28;20049;-89
2023/01/05 01:51:30;;;;;;;;;;;;;;;;;;4991842;28;20045;-89
2023/01/05 01:54:06;;;;;;;1.67;0.88;;;;;;;;;;4989956;28;19944;-92
2023/01/05 01:56:43;;;;;;;1.75;1.30;;;;;;;;;;5027729;28;20054;-90
2023/01/05 01:59:12;;;;;;;1.80;1.20;;;;;;;;;;4999176;28;20060;-89
2023/01/05 02:01:44;;;;;;;1.15;0.95;;;;;;;;;;5012677;28;20067;-90
2023/01/05 02:04:23;;;;;;;2.50;1.63;;;;;;;;;;4985714;28;20137;-92
2023/01/05 02:06:54;;;;;;;1.50;1.40;;;;;;;;;;5007266;28;20046;-91
2023/01/05 02:09:24;;;;;;;1.15;0.98;;;;;;;;;;5018231;28;20053;-89
2023/01/05 02:11:59;;;;;;;1.27;1.17;;;;;;;;;;5010354;28;20060;-89
2023/01/05 02:14:36;;;;;;;1.80;1.20;;;;;;;;;;5025410;28;20049;-90
2023/01/05 02:17:21;;;;;;;1.77;1.60;;;;;;;;;;5029411;28;20046;-91
2023/01/05 02:20:08;;;;;;;;;;;;;;;;;;5016360;28;20557;-90
2023/01/05 02:23:15;;;;;;;1.38;0.88;;;;;;;;;;4993375;28;19922;-90
2023/01/05 02:26:25;;;;;;;1.70;1.17;;;;;;;;;;5015129;28;20045;-91
2023/01/05 02:29:17;;;;;;;1.48;1.38;;;;;;;;;;4991546;28;20061;-93
2023/01/05 02:31:54;;;;;;;1.50;1.40;;;;;;;;;;5016904;28;20050;-92
2023/01/05 02:34:33;;;;;;;1.48;1.20;;;;;;;;;;5019135;28;20046;-90
2023/01/05 02:37:11;;;;;;;1.58;1.40;;;;;;;;;;5000149;28;20045;-89
2023/01/05 02:39:45;;;;;;;1.50;1.38;;;;;;;;;;5025136;28;20053;-90
2023/01/05 02:42:21;;;;;;;2.08;1.27;;;;;;;;;;5014532;28;20053;-90
2023/01/05 02:44:50;;;;;;;1.50;1.40;;;;;;;;;;5023977;28;20057;-91
2023/01/05 02:47:39;;;;;;;1.80;1.17;;;;;;;;;;4999501;28;20042;-91
2023/01/05 02:50:14;;;;;;;1.10;0.95;;;;;;;;;;5014695;28;20048;-92
2023/01/05 02:52:48;;;;;;;1.63;1.00;;;;;;;;;;5016561;28;20065;-91
2023/01/05 02:55:20;;;;;;;1.65;1.45;;;;;;;;;;5017468;28;20244;-91
2023/01/05 02:57:58;;;;;;;1.23;1.13;;;;;;;;;;5031289;28;20049;-91
2023/01/05 03:00:32;;;;;;;1.92;0.85;;;;;;;;;;5012767;28;20057;-91
2023/01/05 03:03:08;;;;;;;1.40;0.90;;;;;;;;;;5018227;28;20041;-91
2023/01/05 03:05:42;;;;;;;0.75;0.75;;;;;;;;;;5016161;28;20049;-93
2023/01/05 03:08:22;;;;;;;1.05;0.80;;;;;;;;;;5030789;28;20054;-91
2023/01/05 03:13:52;;;;;;;0.90;0.73;;;;;;;;;;4969787;28;20057;-91
2023/01/05 03:16:28;;;;;;;1.20;1.10;;;;;;;;;;5011205;28;20046;-93
2023/01/05 03:36:12;;;;;;;0.95;0.63;;;;;;;;;;5003050;28;20049;-93
2023/01/05 03:38:43;;;;;;;0.80;0.80;;;;;;;;;;4992126;28;20057;-91
2023/01/05 03:41:14;;;;;;;2.78;0.95;;;;;;;;;;5012541;28;20058;-91
2023/01/05 03:43:42;;;;;;;0.57;0.57;;;;;;;;;;5030089;22;20058;-82
2023/01/05 03:46:14;;;;;;;1.50;1.38;;;;;;;;;;4967892;28;20428;-81
2023/01/05 03:48:43;;;;;;;1.00;0.80;;;;;;;;;;4950971;28;20054;-81
2023/01/05 03:51:13;;;;;;;1.10;0.80;;;;;;;;;;4952950;28;20488;-82
2023/01/05 03:53:40;;;;;;;0.93;0.80;;;;;;;;;;4969598;28;20046;-81
2023/01/05 03:56:08;;;;;;;0.75;0.68;;;;;;;;;;4941636;28;20066;-81
2023/01/05 03:58:38;;;;;;;1.05;0.90;;;;;;;;;;4965637;28;20053;-81
2023/01/05 04:01:08;;;;;;;0.60;0.55;;;;;;;;;;4967901;28;20043;-82
2023/01/05 04:03:35;;;;;;;0.52;0.50;;;;;;;;;;4966764;28;20058;-82
2023/01/05 04:06:08;;;;;;;0.70;0.70;;;;;;;;;;4966516;28;20043;-82
2023/01/05 04:08:39;;;;;;;1.25;0.80;;;;;;;;;;4966632;28;20791;-82
2023/01/05 04:11:14;;;;;;;2.13;1.08;;;;;;;;;;4963028;28;20413;-83
2023/01/05 04:13:46;;;;;;;1.20;0.60;;;;;;;;;;4961227;28;20046;-82
2023/01/05 04:16:14;;;;;;;1.02;0.93;;;;;;;;;;4971750;28;20061;-82
2023/01/05 04:18:42;;;;;;;1.05;0.98;;;;;;;;;;4986994;28;20057;-82
2023/01/05 04:21:10;;;;;;;0.90;0.68;;;;;;;;;;4947605;28;20046;-82
2023/01/05 04:23:40;;;;;;;1.58;0.90;;;;;;;;;;4965910;28;20049;-82
2023/01/05 04:26:12;;;;;;;;;;;;;;;;;;4957642;28;20058;-83
2023/01/05 04:28:42;;;;;;;1.00;0.93;;;;;;;;;;4968204;28;19922;-83
2023/01/05 04:31:11;;;;;;;1.00;0.73;;;;;;;;;;4952778;28;20425;-83
2023/01/05 04:33:39;;;;;;;1.27;0.88;;;;;;;;;;4964763;28;20524;-83
2023/01/05 04:36:10;;;;;;;1.35;1.10;;;;;;;;;;4969023;28;20050;-83
2023/01/05 04:38:37;;;;;;;0.95;0.80;;;;;;;;;;4964320;28;20062;-83
2023/01/05 04:41:10;;;;;;;2.08;1.17;;;;;;;;;;4971961;28;20069;-83
2023/01/05 04:43:39;;;;;;;2.08;1.23;;;;;;;;;;4963858;28;20058;-83
2023/01/05 04:46:09;;;;;;;1.83;1.50;;;;;;;;;;4959392;28;20042;-83
2023/01/05 04:48:38;;;;;;;2.53;1.55;;;;;;;;;;4946884;28;20054;-83
2023/01/05 04:51:06;;;;;;;1.63;1.52;;;;;;;;;;4948367;28;20466;-82
2023/01/05 04:53:37;;;;;;;1.92;1.73;;;;;;;;;;4971387;28;20420;-82
2023/01/05 04:56:06;;;;;;;1.55;1.10;;;;;;;;;;4967513;28;20408;-84
2023/01/05 04:58:44;;;;;;;1.55;1.25;;;;;;;;;;4970572;28;20050;-83
2023/01/05 05:01:14;;;;;;;3.15;1.42;;;;;;;;;;4961977;28;20524;-83
2023/01/05 05:03:43;;;;;;;6.47;2.20;;;;;;;;;;4972083;28;20038;-83
2023/01/05 05:06:16;;;;;;;4.78;1.83;;;;;;;;;;4946869;28;20054;-82
2023/01/05 05:08:44;;;;;;;6.22;1.75;;;;;;;;;;4966593;28;20531;-82
2023/01/05 05:11:12;;;;;;;9.60;3.28;;;;;;;;;;4967622;28;20042;-82
2023/01/05 05:13:41;;;;;;;8.90;2.17;;;;;;;;;;4947775;28;20059;-82
2023/01/05 05:16:10;;;;;;;2.05;1.30;;;;;;;;;;4956459;28;20053;-82
2023/01/05 05:18:39;;;;;;;11.70;3.65;;;;;;;;;;4972764;28;20054;-82
2023/01/05 05:21:10;;;;;;;5.05;3.00;;;;;;;;;;4964099;28;20385;-82
2023/01/05 05:23:39;;;;;;;8.27;3.03;;;;;;;;;;4967136;28;20050;-83
2023/01/05 05:26:07;;;;;;;5.65;2.30;;;;;;;;;;4975423;28;20057;-82
2023/01/05 05:28:36;;;;;;;4.13;2.08;;;;;;;;;;4965563;28;20050;-83
2023/01/05 05:31:04;;;;;;;11.32;2.30;;;;;;;;;;4974843;28;20059;-83
2023/01/05 05:33:32;;;;;;;6.25;2.03;;;;;;;;;;4987717;28;20073;-83
2023/01/05 05:35:59;;;;;;;5.80;1.90;;;;;;;;;;4971302;28;20058;-83
2023/01/05 05:38:27;;;;;;;4.50;3.53;;;;;;;;;;4955642;28;20054;-83
2023/01/05 05:40:54;;;;;;;8.50;2.08;;;;;;;;;;4992655;28;20397;-83
2023/01/05 05:43:24;;;;;;;8.38;3.20;;;;;;;;;;4980370;28;20050;-82
2023/01/05 05:45:51;;;;;;;8.15;2.83;;;;;;;;;;4944438;28;20898;-83
2023/01/05 05:48:21;;;;;;;8.18;2.38;;;;;;;;;;4958803;28;20058;-83
2023/01/05 05:50:52;;;;;;;9.88;3.20;;;;;;;;;;4975503;28;20416;-83
2023/01/05 05:53:21;;;;;;;7.63;1.77;;;;;;;;;;4960521;28;20775;-83
2023/01/05 05:55:53;;;;;;;10.38;3.17;;;;;;;;;;4958481;28;20055;-83
2023/01/05 05:58:23;;;;;;;6.18;3.58;;;;;;;;;;4959085;28;20070;-83
2023/01/05 06:00:57;;;;;;;6.35;2.20;;;;;;;;;;4957020;28;20508;-83
2023/01/05 06:03:27;;;;;;;7.65;2.25;;;;;;;;;;4955923;28;20057;-83
2023/01/05 06:05:55;;;;;;;4.35;2.50;;;;;;;;;;4974597;28;20046;-83
2023/01/05 06:08:26;;;;;;;5.20;2.10;;;;;;;;;;4975197;28;20404;-83
2023/01/05 06:10:53;;;;;;;9.75;2.88;;;;;;;;;;4945193;28;20096;-83
2023/01/05 06:13:20;;;;;;;8.80;3.72;;;;;;;;;;4974990;28;20230;-82
2023/01/05 06:15:50;;;;;;;12.73;4.80;;;;;;;;;;4941764;28;20412;-83
2023/01/05 06:18:19;;;;;;;7.53;2.10;;;;;;;;;;4960210;28;20054;-83
2023/01/05 06:20:49;;;;;;;7.97;3.40;;;;;;;;;;4973860;28;20057;-83
2023/01/05 06:23:18;;;;;;;7.20;1.73;;;;;;;;;;4966965;28;20061;-82
2023/01/05 06:25:45;;;;;;;7.22;3.83;;;;;;;;;;4975339;28;20440;-83
2023/01/05 06:28:12;;;;;;;6.10;2.25;;;;;;;;;;4965690;28;20047;-82
2023/01/05 06:30:39;;;;;;;8.90;2.03;;;;;;;;;;4969683;28;20509;-82
2023/01/05 06:33:07;;;;;;;7.20;2.97;;;;;;;;;;4966434;28;20054;-83
2023/01/05 06:35:36;;;;;;;7.97;2.78;;;;;;;;;;4992455;28;20061;-83
2023/01/05 06:38:06;;;;;;;6.32;2.15;;;;;;;;;;4990811;28;20053;-82
2023/01/05 06:40:34;;;;;;;5.30;2.05;;;;;;;;;;4979313;28;20046;-83
2023/01/05 06:43:01;;;;;;;10.68;4.18;;;;;;;;;;4979871;28;20051;-84
2023/01/05 06:45:29;;;;;;;5.45;2.05;;;;;;;;;;4971647;28;20042;-83
2023/01/05 06:47:59;;;;;;;4.70;2.47;;;;;;;;;;4960411;28;20058;-83
2023/01/05 06:50:27;;;;;;;8.07;3.42;;;;;;;;;;4947877;28;20413;-83
2023/01/05 06:52:54;;;;;;;7.05;2.15;;;;;;;;;;4965863;28;20046;-83
2023/01/05 06:55:24;;;;;;;11.45;2.95;;;;;;;;;;4973713;28;20046;-83
2023/01/05 06:57:52;;;;;;;10.35;3.15;;;;;;;;;;4988257;28;20058;-83
2023/01/05 07:00:20;;;;;;;12.63;3.45;;;;;;;;;;4982187;28;20497;-84
2023/01/05 07:02:49;;;;;;;12.43;2.20;;;;;;;;;;4963475;28;20053;-83
2023/01/05 07:05:17;;;;;;;10.13;4.20;;;;;;;;;;4963157;28;20050;-83
2023/01/05 07:07:44;;;;;;;6.15;1.67;;;;;;;;;;5001098;28;20050;-83
2023/01/05 07:10:14;;;;;;;7.90;2.85;;;;;;;;;;4986261;28;20050;-84
2023/01/05 07:12:41;;;;;;;7.75;3.15;;;;;;;;;;4986334;28;20051;-82
2023/01/05 07:15:15;;;;;;;6.60;2.80;;;;;;;;;;5010982;28;20033;-83
2023/01/05 07:17:42;;;;;;;7.05;2.78;;;;;;;;;;4998409;28;20066;-84
2023/01/05 07:20:09;;;;;;;5.88;2.63;;;;;;;;;;4994704;28;20424;-84
2023/01/05 07:22:39;;;;;;;11.23;2.78;;;;;;;;;;4959703;28;20046;-84
2023/01/05 07:25:10;;;;;;;16.75;3.47;;;;;;;;;;4965881;28;20042;-83
2023/01/05 07:27:37;;;;;;;6.80;2.70;;;;;;;;;;4988443;28;20057;-83
2023/01/05 07:30:07;;;;;;;9.63;2.70;;;;;;;;;;4974589;28;20061;-82
2023/01/05 07:32:38;;;;;;;4.38;2.00;;;;;;;;;;4979166;28;20050;-83
2023/01/05 07:35:06;;;;;;;15.60;3.17;;;;;;;;;;4990190;28;20073;-83
2023/01/05 07:37:33;;;;;;;10.70;2.45;;;;;;;;;;4969659;28;20050;-83
2023/01/05 07:40:00;;;;;;;10.13;3.30;;;;;;;;;;4954752;28;20066;-82
2023/01/05 07:42:30;;;;;;;9.35;3.72;;;;;;;;;;4987547;28;20046;-83
2023/01/05 07:44:57;;;;;;;7.63;2.72;;;;;;;;;;4965831;28;20416;-83
2023/01/05 07:47:25;;;;;;;6.45;2.83;;;;;;;;;;4984644;28;20054;-82
2023/01/05 07:49:56;;;;;;;10.60;3.08;;;;;;;;;;4990069;28;20051;-83
2023/01/05 07:52:23;;;;;;;4.65;2.10;;;;;;;;;;4971122;28;20046;-83
2023/01/05 07:54:52;;;;;;;8.80;2.45;;;;;;;;;;4966235;28;20050;-83
2023/01/05 07:57:22;;;;;;;6.85;3.15;;;;;;;;;;4976708;28;20053;-82
2023/01/05 07:59:49;;;;;;;5.65;2.13;;;;;;;;;;4975999;28;20054;-83
2023/01/05 08:02:21;;;;;;;9.65;3.42;;;;;;;;;;4992396;28;20050;-82
2023/01/05 08:04:51;;;;;;;9.65;3.25;;;;;;;;;;4978304;28;20055;-83
2023/01/05 08:07:20;;;;;;;8.10;4.18;;;;;;;;;;4973554;28;20054;-83
2023/01/05 08:13:58;;;;;;;6.05;1.92;;;;;;;;;;4973786;28;20042;-82
2023/01/05 08:15:22;;;;;;;6.70;1.73;;;;;;;;;;4970246;28;20038;-82
2023/01/05 08:17:49;;;;;;;5.45;2.75;;;;;;;;;;4973968;28;20062;-82
2023/01/05 08:20:21;;;;;;;11.77;3.03;;;;;;;;;;4973333;28;20408;-83
2023/01/05 08:22:52;;;;;;;12.13;3.75;;;;;;;;;;4956465;28;20062;-83
2023/01/05 08:25:21;;;;;;;8.13;1.98;;;;;;;;;;4970222;28;20042;-83
2023/01/05 08:27:48;;;;;;;9.63;2.92;;;;;;;;;;4980858;28;20047;-83
2023/01/05 08:30:16;;;;;;;11.35;3.25;;;;;;;;;;4994054;28;20054;-83
2023/01/05 08:32:45;;;;;;;6.18;2.47;;;;;;;;;;4973792;28;20504;-83
2023/01/05 08:35:13;;;;;;;4.85;2.85;;;;;;;;;;4992310;28;20046;-83
2023/01/05 08:37:40;;;;;;;6.85;2.35;;;;;;;;;;4990527;28;20056;-83
2023/01/05 08:40:12;;;;;;;9.63;2.80;;;;;;;;;;4990312;28;20053;-83
2023/01/05 08:42:41;;;;;;;10.23;2.33;;;;;;;;;;4989156;28;20047;-83
2023/01/05 08:45:10;;;;;;;6.22;2.60;;;;;;;;;;4983193;28;20062;-83
2023/01/05 08:47:37;;;;;;;7.75;2.78;;;;;;;;;;4991256;28;20054;-83
2023/01/05 08:50:08;;;;;;;5.88;1.85;;;;;;;;;;4983602;28;20400;-83
2023/01/05 08:52:35;;;;;;;6.47;2.38;;;;;;;;;;4989874;28;20408;-83
2023/01/05 08:55:03;;;;;;;5.65;3.30;;;;;;;;;;4957425;28;20062;-82
2023/01/05 08:57:32;;;;;;;5.72;1.80;;;;;;;;;;4988717;28;20515;-83
2023/01/05 08:59:59;;;;;;;13.75;3.72;;;;;;;;;;4992873;28;20069;-83
2023/01/05 09:02:27;;;;;;;6.35;2.65;;;;;;;;;;4992519;28;20049;-83
2023/01/05 09:04:54;;;;;;;13.43;5.75;;;;;;;;;;4994056;28;20055;-83
2023/01/05 09:07:21;;;;;;;17.70;3.50;;;;;;;;;;4973023;28;20045;-83
2023/01/05 09:09:51;;;;;;;8.18;3.47;;;;;;;;;;4992097;28;20054;-83
2023/01/05 09:12:18;;;;;;;7.55;3.80;;;;;;;;;;4992056;28;20046;-83
2023/01/05 09:14:49;;;;;;;8.15;2.78;;;;;;;;;;4976456;28;20050;-83
2023/01/05 09:17:17;;;;;;;8.20;3.17;;;;;;;;;;4990904;28;20065;-83
2023/01/05 09:19:46;;;;;;;9.35;3.85;;;;;;;;;;4962722;28;20053;-83
2023/01/05 09:22:16;;;;;;;7.97;3.75;;;;;;;;;;4989734;28;20055;-83
2023/01/05 09:24:43;;;;;;;8.57;3.05;;;;;;;;;;4959678;28;20054;-83
2023/01/05 09:27:10;;;;;;;8.90;3.20;;;;;;;;;;4982647;28;20035;-83
2023/01/05 09:29:38;;;;;;;6.80;3.00;;;;;;;;;;4991529;28;20046;-83
2023/01/05 09:32:10;;;;;;;3.72;2.20;;;;;;;;;;4990107;28;20053;-83
2023/01/05 09:34:39;;;;;;;8.98;3.63;;;;;;;;;;4980592;28;20058;-84
2023/01/05 09:37:07;;;;;;;18.60;2.75;;;;;;;;;;4992880;28;20045;-83
2023/01/05 09:39:34;;;;;;;6.50;2.40;;;;;;;;;;4977453;28;20054;-85
2023/01/05 09:42:04;;;;;;;8.32;3.63;;;;;;;;;;4984718;28;20090;-83
2023/01/05 09:53:41;;;;;;;6.03;3.22;;;;;;;;;;2174024;22;20038;-92
2023/01/05 09:56:19;;;;;;;5.68;2.28;;;;;;;;;;5020720;28;20042;-92
2023/01/05 09:58:53;;;;;;;9.18;4.60;;;;;;;;;;5018416;28;20030;-92
2023/01/05 10:01:23;;;;;;;6.55;2.60;;;;;;;;;;5009785;28;20034;-92
2023/01/05 10:03:56;;;;;;;9.27;4.22;;;;;;;;;;5012294;28;20050;-93
2023/01/05 10:06:37;;;;;;;8.23;3.17;;;;;;;;;;5013898;28;20523;-92
2023/01/05 10:09:14;;;;;;;14.55;3.38;;;;;;;;;;5009453;28;20058;-92
2023/01/05 10:14:50;;;;;;;12.32;3.55;;;;;;;;;;4995375;28;20059;-92
2023/01/05 10:17:39;;;;;;;12.88;3.22;;;;;;;;;;5014165;28;20057;-92
2023/01/05 10:20:14;;;;;;;8.20;2.50;;;;;;;;;;4987701;28;20057;-92
2023/01/05 10:23:00;;;;;;;9.63;2.53;;;;;;;;;;4997237;28;20049;-92
2023/01/05 10:25:36;;;;;;;7.90;3.42;;;;;;;;;;4996950;28;20050;-91
2023/01/05 10:28:28;;;;;;;5.88;3.08;;;;;;;;;;5008417;28;20045;-92
2023/01/05 10:31:24;;;;;;;4.60;3.13;;;;;;;;;;5018695;28;20068;-91
2023/01/05 10:34:04;;;;;;;10.10;2.97;;;;;;;;;;5017040;28;20519;-92
2023/01/05 10:36:58;;;;;;;8.75;3.47;;;;;;;;;;5012840;28;20073;-92
2023/01/05 10:39:31;;;;;;;9.55;3.38;;;;;;;;;;5019300;28;20054;-92
2023/01/05 10:42:07;;;;;;;16.70;4.70;;;;;;;;;;5015713;28;20053;-92
2023/01/05 10:44:52;;;;;;;9.63;3.25;;;;;;;;;;5011050;28;20400;-93
2023/01/05 10:47:27;;;;;;;7.10;3.17;;;;;;;;;;5000943;28;20042;-92
2023/01/05 10:49:54;;;;;;;11.95;3.15;;;;;;;;;;4981043;28;20069;-91
2023/01/05 10:53:00;;;;;;;7.97;2.75;;;;;;;;;;5011077;28;20072;-93
2023/01/05 10:55:45;;;;;;;12.05;3.47;;;;;;;;;;5002941;28;20061;-92
2023/01/05 10:58:28;;;;;;;8.43;2.80;;;;;;;;;;4989330;28;20053;-93
2023/01/05 11:01:00;;;;;;;5.72;2.45;;;;;;;;;;5010821;28;20077;-92
2023/01/05 11:03:47;;;;;;;9.52;2.20;;;;;;;;;;4989237;28;20046;-94
2023/01/05 11:06:20;;;;;;;5.65;2.45;;;;;;;;;;5006386;28;20408;-92
2023/01/05 11:09:07;;;;;;;11.20;3.43;;;;;;;;;;5009228;28;20534;-92
2023/01/05 11:12:04;;;;;;;12.95;3.47;;;;;;;;;;4987895;28;20301;-92
2023/01/05 11:14:37;;;;;;;3.63;2.00;;;;;;;;;;5006923;28;20050;-92
2023/01/05 11:17:07;;;;;;;6.45;3.63;;;;;;;;;;5007561;28;20476;-91
2023/01/05 11:27:02;;;;;;;6.63;3.03;;;;;;;;;;5004608;28;20041;-90
2023/01/05 11:29:31;;;;;;;7.68;2.65;;;;;;;;;;5010083;28;20052;-92
2023/01/05 11:32:04;;;;;;;8.15;2.97;;;;;;;;;;5011425;28;20046;-91
2023/01/05 11:34:45;;;;;;;21.00;3.72;;;;;;;;;;5013371;28;20064;-92
2023/01/05 11:37:22;;;;;;;17.95;3.80;;;;;;;;;;5011690;28;20045;-92
2023/01/05 11:39:59;;;;;;;18.00;2.80;;;;;;;;;;4968304;28;20050;-90
2023/01/05 11:42:34;;;;;;;5.30;3.33;;;;;;;;;;5006098;28;20053;-91
2023/01/05 11:45:19;;;;;;;7.30;3.72;;;;;;;;;;4992737;28;20510;-90
2023/01/05 11:47:55;;;;;;;8.40;2.95;;;;;;;;;;4990084;28;20554;-91
2023/01/05 11:50:24;;;;;;;11.97;4.93;;;;;;;;;;4978984;28;20047;-92
2023/01/05 11:52:55;;;;;;;12.18;3.03;;;;;;;;;;4987877;28;20073;-91
2023/01/05 11:55:33;;;;;;;8.50;3.80;;;;;;;;;;4998420;28;20507;-91
2023/01/05 11:58:21;;;;;;;12.85;6.50;;;;;;;;;;4978853;28;20061;-91
2023/01/05 12:01:30;;;;;;;9.50;2.33;;;;;;;;;;5001948;28;20046;-91
2023/01/05 12:04:16;;;;;;;11.05;4.85;;;;;;;;;;4988323;28;20064;-90
2023/01/05 12:07:04;;;;;;;7.35;3.40;;;;;;;;;;4990034;28;20054;-91
2023/01/05 12:09:35;;;;;;;10.40;4.45;;;;;;;;;;4996444;28;20422;-89
2023/01/05 12:12:31;;;;;;;10.35;6.10;;;;;;;;;;4992468;28;20050;-91
2023/01/05 12:15:31;;;;;;;9.27;3.92;;;;;;;;;;4993527;28;20049;-89
2023/01/05 12:18:06;;;;;;;10.85;5.18;;;;;;;;;;4979947;28;20056;-89
2023/01/05 12:20:48;;;;;;;16.08;5.40;;;;;;;;;;4985549;28;20050;-90
2023/01/05 12:23:32;;;;;;;12.80;5.32;;;;;;;;;;4980157;28;20050;-92
2023/01/05 12:26:13;;;;;;;12.38;4.40;;;;;;;;;;4980448;28;20061;-91
2023/01/05 12:28:55;;;;;;;12.05;5.40;;;;;;;;;;4983673;28;20053;-90
2023/01/05 12:31:31;;;;;;;13.95;3.92;;;;;;;;;;4987139;28;20514;-90
2023/01/05 12:34:12;;;;;;;10.25;3.42;;;;;;;;;;4974768;28;20046;-89
2023/01/05 12:36:47;;;;;;;7.43;3.15;;;;;;;;;;4998861;28;20057;-91
2023/01/05 12:39:45;;;;;;;15.65;3.70;;;;;;;;;;4973038;28;20034;-90
2023/01/05 12:42:34;;;;;;;20.60;4.03;;;;;;;;;;4975882;28;20060;-90
2023/01/05 12:45:21;;;;;;;15.57;3.72;;;;;;;;;;4998661;28;20137;-91
2023/01/05 12:47:58;;;;;;;5.10;3.55;;;;;;;;;;4997177;28;20069;-90
2023/01/05 12:50:30;;;;;;;7.97;4.28;;;;;;;;;;4994267;28;20066;-92
2023/01/05 12:53:07;;;;;;;11.20;3.33;;;;;;;;;;4985737;28;20061;-91
2023/01/05 12:55:43;;;;;;;7.28;3.45;;;;;;;;;;4987223;28;20303;-92
2023/01/05 12:58:14;;;;;;;11.60;4.05;;;;;;;;;;4983628;28;20045;-90
2023/01/05 13:00:48;;;;;;;5.07;2.75;;;;;;;;;;4996554;28;20506;-92
2023/01/05 13:03:35;;;;;;;9.75;2.90;;;;;;;;;;4981118;28;20051;-93
2023/01/05 13:06:09;;;;;;;10.55;4.05;;;;;;;;;;4988392;28;20042;-92
2023/01/05 13:08:42;;;;;;;22.33;4.15;;;;;;;;;;4978390;28;20049;-91
2023/01/05 13:11:17;;;;;;;11.43;2.88;;;;;;;;;;4991645;28;20053;-93
2023/01/05 13:13:48;;;;;;;15.38;3.92;;;;;;;;;;4985617;28;20061;-93
2023/01/05 13:16:19;;;;;;;6.95;4.63;;;;;;;;;;4984026;28;20043;-93
2023/01/05 13:18:55;;;;;;;6.97;3.13;;;;;;;;;;4984321;28;20042;-91
2023/01/05 13:21:27;;;;;;;9.05;3.22;;;;;;;;;;4983835;28;20053;-94
2023/01/05 13:24:03;;;;;;;15.05;4.13;;;;;;;;;;4982541;28;20062;-93
2023/01/05 13:26:31;;;;;;;13.85;3.35;;;;;;;;;;4987502;28;20045;-93
2023/01/05 13:29:01;;;;;;;8.90;2.95;;;;;;;;;;4984590;28;20060;-92
2023/01/05 13:31:58;;;;;;;8.60;3.38;;;;;;;;;;4980589;28;20061;-93
2023/01/05 13:34:36;;;;;;;12.00;4.47;;;;;;;;;;5002939;28;20052;-93
2023/01/05 13:37:38;;;;;;;15.50;3.55;;;;;;;;;;5005786;28;20049;-94
2023/01/05 13:40:24;;;;;;;8.07;2.88;;;;;;;;;;4980639;28;20491;-93
2023/01/05 13:43:16;;;;;;;6.25;2.55;;;;;;;;;;5023371;28;20057;-90
2023/01/05 13:46:15;;;;;;;7.78;3.03;;;;;;;;;;4964930;28;20061;-92
2023/01/05 13:49:10;;;;;;;9.38;3.55;;;;;;;;;;4977644;28;20134;-90
2023/01/05 13:51:52;;;;;;;9.85;4.18;;;;;;;;;;5005513;28;20458;-88
2023/01/05 13:54:35;;;;;;;15.93;4.82;;;;;;;;;;4990872;28;20038;-88
2023/01/05 13:57:11;;;;;;;9.98;4.63;;;;;;;;;;4978645;28;20057;-91
2023/01/05 13:59:40;;;;;;;20.95;9.27;;;;;;;;;;4972754;28;20411;-89
2023/01/05 14:02:29;;;;;;;8.85;5.55;;;;;;;;;;4985768;28;20064;-90
2023/01/05 14:04:58;;;;;;;13.95;5.13;;;;;;;;;;4981021;28;20068;-90
2023/01/05 14:07:28;;;;;;;15.02;4.28;;;;;;;;;;4966176;28;20054;-89
2023/01/05 14:10:05;;;;;;;8.15;3.45;;;;;;;;;;4976715;28;20050;-89
2023/01/05 14:12:54;;;;;;;10.27;4.05;;;;;;;;;;4984806;28;20058;-90
2023/01/05 14:15:40;;;;;;;15.40;5.38;;;;;;;;;;4992099;28;20046;-88
2023/01/05 14:18:10;;;;;;;8.82;3.80;;;;;;;;;;5009014;28;20046;-90
2023/01/05 14:20:47;;;;;;;14.88;3.38;;;;;;;;;;4978244;28;20424;-89
2023/01/05 14:23:55;;;;;;;11.13;4.32;;;;;;;;;;4984438;28;20400;-89
2023/01/05 14:27:02;;;;;;;5.68;3.30;;;;;;;;;;4965074;28;20049;-90
2023/01/05 14:30:04;;;;;;;8.40;3.65;;;;;;;;;;4992886;28;20220;-88
2023/01/05 14:32:35;;;;;;;13.07;3.38;;;;;;;;;;4974362;28;20511;-89
2023/01/05 14:35:13;;;;;;;8.90;3.22;;;;;;;;;;4988492;28;20053;-90
2023/01/05 14:37:50;;;;;;;8.13;4.28;;;;;;;;;;4999345;28;20049;-90
2023/01/05 14:40:28;;;;;;;6.25;3.45;;;;;;;;;;4963250;28;20042;-89
2023/01/05 14:43:01;;;;;;;14.65;6.32;;;;;;;;;;4977548;28;20049;-88
2023/01/05 14:45:31;;;;;;;10.93;3.63;;;;;;;;;;4983852;28;20053;-89
2023/01/05 14:48:03;;;;;;;10.48;4.43;;;;;;;;;;4993587;28;20076;-88
2023/01/05 14:50:35;;;;;;;7.85;2.67;;;;;;;;;;4984854;28;20058;-87
2023/01/05 14:53:19;;;;;;;6.35;3.38;;;;;;;;;;4993020;28;20054;-88
2023/01/05 14:56:16;;;;;;;14.15;4.85;;;;;;;;;;4999275;28;20045;-89
2023/01/05 14:58:54;;;;;;;8.55;3.72;;;;;;;;;;4997477;28;20046;-88
2023/01/05 15:01:41;;;;;;;14.35;4.15;;;;;;;;;;4979192;28;20400;-89
2023/01/05 15:04:26;;;;;;;10.45;3.50;;;;;;;;;;4989293;28;20060;-89
2023/01/05 15:07:14;;;;;;;12.93;3.45;;;;;;;;;;4981894;28;20053;-87
2023/01/05 15:09:55;;;;;;;11.90;3.42;;;;;;;;;;4998813;28;20057;-90
2023/01/05 15:12:46;;;;;;;10.15;2.90;;;;;;;;;;4975483;28;20050;-90
2023/01/05 15:15:35;;;;;;;12.55;3.88;;;;;;;;;;4989098;28;20051;-89
2023/01/05 15:18:36;;;;;;;10.57;4.30;;;;;;;;;;4988752;28;20060;-92
2023/01/05 15:21:42;;;;;;;10.75;4.32;;;;;;;;;;5027628;28;20050;-91
2023/01/05 15:24:42;;;;;;;12.63;3.90;;;;;;;;;;4988931;28;20052;-90
2023/01/05 15:27:33;;;;;;;14.57;5.50;;;;;;;;;;4999614;28;20060;-92
2023/01/05 15:30:18;;;;;;;10.25;5.93;;;;;;;;;;4974447;28;20523;-91
2023/01/05 15:32:55;;;;;;;16.27;4.82;;;;;;;;;;4987075;28;20507;-91
2023/01/05 15:35:40;;;;;;;8.90;4.53;;;;;;;;;;4986469;28;20061;-91
2023/01/05 15:38:22;;;;;;;9.52;4.32;;;;;;;;;;4985585;28;20069;-90
2023/01/05 15:41:01;;;;;;;20.95;4.35;;;;;;;;;;4989102;28;20057;-91
2023/01/05 15:46:54;;;;;;;12.90;4.43;;;;;;;;;;5038966;23;20049;-81
2023/01/05 15:49:40;;;;;;;12.55;3.90;;;;;;;;;;4979997;28;20514;-84
2023/01/05 15:52:46;;;;;;;;;;;;;;;;;;;;;
2023/01/05 15:55:38;;;;;;;14.65;4.72;;;;;;;;;;5008230;28;20049;-83
2023/01/05 15:58:20;;;;;;;7.78;4.15;;;;;;;;;;5008167;28;20361;-83
2023/01/05 16:01:07;;;;;;;10.48;4.00;;;;;;;;;;5004635;28;20056;-83
2023/01/05 16:03:48;;;;;;;11.80;4.40;;;;;;;;;;4985485;28;20061;-83
2023/01/05 16:06:43;;;;;;;9.20;4.57;;;;;;;;;;4999765;28;20043;-83
2023/01/05 16:14:09;;;;;;;;;;;;;;;;;;;;;
2023/01/05 16:55:27;;;;;;;;;;;;;;;;;;;;;
2023/01/05 16:59:23;;;;;;;;;;;;;;;;;;;;;
2023/01/05 17:06:00;;;;;;;8.23;3.33;;;;;;;;;;4752122;29;20761;-84
2023/01/05 17:09:30;;;;;;;12.52;4.07;;;;;;;;;;4909305;28;22013;-83
2023/01/05 17:12:18;;;;;;;12.57;3.70;;;;;;;;;;4964210;28;20281;-83
2023/01/05 17:14:52;;;;;;;13.73;3.75;;;;;;;;;;4951040;28;20062;-84
2023/01/05 17:17:45;;;;;;;7.25;4.03;;;;;;;;;;4935542;29;20569;-84
2023/01/05 17:20:30;;;;;;;16.98;4.60;;;;;;;;;;4964010;28;20513;-84